createdAt,value
2023-03-20T00:00:34.991Z,22.12
2023-03-20T00:03:05.710Z,22.09
2023-03-20T00:05:35.643Z,22.09
2023-03-20T00:08:06.268Z,22.09
2023-03-20T00:10:42.613Z,22.11
2023-03-20T00:13:19.427Z,22.12
2023-03-20T00:15:50.172Z,22.13
2023-03-20T00:18:23.585Z,22.14
2023-03-20T00:20:54.753Z,22.14
2023-03-20T00:23:25.080Z,22.13
2023-03-20T00:25:59.233Z,22.13
2023-03-20T00:28:41.471Z,22.12
2023-03-20T00:31:25.814Z,22.12
2023-03-20T00:33:58.516Z,22.14
2023-03-20T00:36:29.441Z,22.15
2023-03-20T00:38:59.893Z,22.16
2023-03-20T00:41:36.440Z,22.18
2023-03-20T00:44:22.659Z,22.17
2023-03-20T00:46:56.386Z,22.16
2023-03-20T00:49:30.122Z,22.16
2023-03-20T00:52:01.742Z,22.15
2023-03-20T00:54:32.507Z,22.16
2023-03-20T00:57:13.998Z,22.17
2023-03-20T00:59:59.724Z,22.17
2023-03-20T01:02:32.069Z,22.17
2023-03-20T01:05:02.390Z,22.18
2023-03-20T01:07:32.534Z,22.18
2023-03-20T01:10:02.648Z,22.17
2023-03-20T01:12:35.203Z,22.15
2023-03-20T01:15:06.349Z,22.14
2023-03-20T01:17:36.728Z,22.14
2023-03-20T01:20:21.274Z,22.14
2023-03-20T01:22:52.151Z,22.13
2023-03-20T01:25:23.185Z,22.12
2023-03-20T01:27:58.483Z,22.14
2023-03-20T01:30:31.714Z,22.13
2023-03-20T01:33:04.566Z,22.15
2023-03-20T01:35:35.326Z,22.16
2023-03-20T01:38:06.005Z,22.18
2023-03-20T01:40:45.550Z,22.20
2023-03-20T01:43:22.744Z,22.22
2023-03-20T01:46:03.774Z,22.23
2023-03-20T01:49:11.321Z,22.25
2023-03-20T01:51:41.414Z,22.27
2023-03-20T01:54:21.442Z,22.29
2023-03-20T01:56:57.009Z,22.30
2023-03-20T01:59:34.848Z,22.32
2023-03-20T02:02:06.666Z,22.31
2023-03-20T02:04:43.564Z,22.31
2023-03-20T02:07:18.113Z,22.31
2023-03-20T02:09:50.340Z,22.33
2023-03-20T02:12:22.502Z,22.34
2023-03-20T02:14:55.484Z,22.34
2023-03-20T02:17:25.425Z,22.34
2023-03-20T02:20:09.498Z,22.34
2023-03-20T02:23:39.563Z,22.32
2023-03-20T02:26:38.159Z,22.29
2023-03-20T02:30:02.703Z,22.28
2023-03-20T02:33:33.334Z,22.27
2023-03-20T02:37:03.353Z,22.23
2023-03-20T02:40:23.429Z,22.19
2023-03-20T02:43:04.821Z,22.19
2023-03-20T02:45:45.329Z,22.20
2023-03-20T02:48:26.497Z,22.20
2023-03-20T02:51:06.730Z,22.17
2023-03-20T02:53:52.882Z,22.14
2023-03-20T02:56:35.398Z,22.10
2023-03-20T02:59:19.787Z,22.05
2023-03-20T03:01:59.743Z,22.01
2023-03-20T03:04:35.534Z,21.97
2023-03-20T03:07:11.121Z,21.96
2023-03-20T03:09:48.749Z,21.92
2023-03-20T03:12:26.329Z,21.91
2023-03-20T03:15:03.142Z,21.88
2023-03-20T03:17:39.572Z,21.85
2023-03-20T03:20:21.913Z,21.83
2023-03-20T03:22:53.147Z,21.81
2023-03-20T03:25:28.005Z,21.79
2023-03-20T03:28:09.788Z,21.79
2023-03-20T03:30:43.063Z,21.76
2023-03-20T03:33:23.463Z,21.74
2023-03-20T03:36:03.374Z,21.72
2023-03-20T03:38:45.000Z,21.68
2023-03-20T03:41:34.354Z,21.67
2023-03-20T03:44:18.641Z,21.66
2023-03-20T03:46:56.081Z,21.65
2023-03-20T03:49:33.578Z,21.64
2023-03-20T03:52:11.510Z,21.64
2023-03-20T03:54:46.520Z,21.64
2023-03-20T03:57:24.351Z,21.65
2023-03-20T03:59:58.905Z,21.64
2023-03-20T04:02:30.291Z,21.64
2023-03-20T04:05:04.656Z,21.64
2023-03-20T04:07:35.366Z,21.62
2023-03-20T04:10:05.930Z,21.63
2023-03-20T04:12:42.202Z,21.65
2023-03-20T04:15:16.336Z,21.64
2023-03-20T04:17:47.364Z,21.63
2023-03-20T04:20:18.582Z,21.64
2023-03-20T04:22:48.620Z,21.63
2023-03-20T04:25:25.419Z,21.63
2023-03-20T04:27:56.566Z,21.63
2023-03-20T04:30:28.940Z,21.64
2023-03-20T04:32:59.447Z,21.65
2023-03-20T04:35:29.734Z,21.66
2023-03-20T04:37:59.994Z,21.67
2023-03-20T04:40:32.132Z,21.68
2023-03-20T04:43:02.447Z,21.69
2023-03-20T04:45:34.653Z,21.72
2023-03-20T04:48:05.549Z,21.72
2023-03-20T04:50:36.207Z,21.74
2023-03-20T04:53:06.279Z,21.75
2023-03-20T04:55:36.756Z,21.76
2023-03-20T04:58:07.167Z,21.76
2023-03-20T05:00:40.899Z,21.77
2023-03-20T05:03:17.357Z,21.77
2023-03-20T05:05:47.181Z,21.78
2023-03-20T05:08:17.536Z,21.78
2023-03-20T05:10:47.996Z,21.79
2023-03-20T05:13:18.037Z,21.79
2023-03-20T05:15:50.291Z,21.81
2023-03-20T05:18:20.966Z,21.82
2023-03-20T05:20:52.508Z,21.82
2023-03-20T05:23:23.210Z,21.81
2023-03-20T05:25:53.954Z,21.80
2023-03-20T05:28:24.368Z,21.80
2023-03-20T05:30:56.921Z,21.79
2023-03-20T05:33:27.027Z,21.80
2023-03-20T05:35:57.647Z,21.80
2023-03-20T05:38:28.101Z,21.79
2023-03-20T05:41:02.409Z,21.77
2023-03-20T05:43:32.304Z,21.75
2023-03-20T05:46:04.562Z,21.71
2023-03-20T05:48:34.602Z,21.65
2023-03-20T05:51:04.892Z,21.60
2023-03-20T05:53:35.403Z,21.57
2023-03-20T05:56:06.392Z,21.54
2023-03-20T05:58:37.004Z,21.52
2023-03-20T06:01:10.086Z,21.50
2023-03-20T06:03:40.545Z,21.47
2023-03-20T06:06:12.081Z,21.46
2023-03-20T06:08:42.332Z,21.46
2023-03-20T06:11:13.351Z,21.44
2023-03-20T06:13:43.670Z,21.40
2023-03-20T06:16:15.243Z,21.38
2023-03-20T06:18:45.728Z,21.38
2023-03-20T06:21:16.265Z,21.34
2023-03-20T06:23:47.011Z,21.35
2023-03-20T06:26:17.765Z,21.34
2023-03-20T06:28:48.409Z,21.35
2023-03-20T06:31:21.110Z,21.35
2023-03-20T06:33:51.589Z,21.39
2023-03-20T06:36:22.037Z,21.42
2023-03-20T06:38:52.359Z,21.44
2023-03-20T06:41:33.741Z,21.45
2023-03-20T06:44:05.429Z,21.46
2023-03-20T06:46:38.042Z,21.46
2023-03-20T06:49:08.621Z,21.44
2023-03-20T06:51:40.461Z,21.44
2023-03-20T06:54:10.881Z,21.43
2023-03-20T06:56:41.282Z,21.44
2023-03-20T06:59:11.451Z,21.42
2023-03-20T07:01:46.030Z,21.43
2023-03-20T07:04:17.810Z,21.43
2023-03-20T07:06:48.708Z,21.44
2023-03-20T07:09:19.603Z,21.44
2023-03-20T07:11:50.133Z,21.45
2023-03-20T07:14:21.139Z,21.48
2023-03-20T07:16:53.067Z,21.52
2023-03-20T07:19:23.635Z,21.55
2023-03-20T07:22:02.121Z,21.58
2023-03-20T07:24:32.452Z,21.59
2023-03-20T07:27:03.410Z,21.63
2023-03-20T07:29:33.954Z,21.64
2023-03-20T07:32:05.666Z,21.68
2023-03-20T07:34:35.700Z,21.74
2023-03-20T07:37:06.942Z,21.80
2023-03-20T07:39:36.736Z,21.83
2023-03-20T07:42:07.122Z,21.87
2023-03-20T07:44:38.063Z,21.91
2023-03-20T07:47:10.642Z,21.94
2023-03-20T07:49:41.835Z,21.98
2023-03-20T07:52:12.744Z,22.00
2023-03-20T07:54:43.291Z,22.04
2023-03-20T07:57:13.844Z,22.07
2023-03-20T07:59:43.727Z,22.02
2023-03-20T08:02:18.916Z,22.01
2023-03-20T08:04:49.414Z,22.02
2023-03-20T08:07:19.954Z,22.03
2023-03-20T08:09:50.391Z,22.06
2023-03-20T08:12:21.686Z,22.10
2023-03-20T08:14:53.048Z,22.12
2023-03-20T08:17:25.935Z,22.12
2023-03-20T08:19:56.758Z,22.12
2023-03-20T08:22:27.191Z,22.12
2023-03-20T08:24:57.469Z,22.13
2023-03-20T08:27:27.455Z,22.15
2023-03-20T08:29:58.011Z,22.16
2023-03-20T08:32:30.424Z,22.15
2023-03-20T08:35:00.193Z,22.14
2023-03-20T08:37:31.086Z,22.18
2023-03-20T08:40:01.818Z,22.21
2023-03-20T08:42:31.719Z,22.24
2023-03-20T08:45:01.634Z,22.27
2023-03-20T08:47:33.804Z,22.28
2023-03-20T08:50:03.554Z,22.27
2023-03-20T08:52:33.680Z,22.28
2023-03-20T08:55:04.365Z,22.31
2023-03-20T08:57:34.909Z,22.31
2023-03-20T09:00:14.436Z,22.32
2023-03-20T09:02:46.653Z,22.34
2023-03-20T09:05:17.791Z,22.36
2023-03-20T09:07:48.035Z,22.36
2023-03-20T09:10:17.948Z,22.35
2023-03-20T09:12:47.944Z,22.35
2023-03-20T09:15:18.645Z,22.37
2023-03-20T09:17:51.023Z,22.39
2023-03-20T09:20:21.186Z,22.41
2023-03-20T09:22:50.956Z,22.44
2023-03-20T09:25:21.715Z,22.43
2023-03-20T09:27:55.774Z,22.44
2023-03-20T09:30:27.358Z,22.45
2023-03-20T09:33:00.866Z,22.45
2023-03-20T09:35:31.669Z,22.45
2023-03-20T09:38:02.154Z,22.48
2023-03-20T09:40:52.175Z,22.52
2023-03-20T09:43:40.472Z,22.55
2023-03-20T09:46:43.040Z,22.59
2023-03-20T09:49:29.451Z,22.62
2023-03-20T09:52:02.688Z,22.66
2023-03-20T09:54:53.101Z,22.69
2023-03-20T09:57:29.755Z,22.73
2023-03-20T10:00:07.810Z,22.76
2023-03-20T10:02:51.289Z,22.78
2023-03-20T10:05:28.779Z,22.81
2023-03-20T10:08:03.004Z,22.85
2023-03-20T10:10:47.518Z,22.88
2023-03-20T10:13:56.479Z,22.93
2023-03-20T10:16:45.100Z,22.95
2023-03-20T10:19:25.458Z,22.99
2023-03-20T10:22:05.082Z,23.02
2023-03-20T10:24:41.814Z,23.05
2023-03-20T10:27:28.061Z,23.09
2023-03-20T10:30:23.356Z,23.13
2023-03-20T10:33:08.142Z,23.14
2023-03-20T10:35:49.729Z,23.18
2023-03-20T10:38:35.521Z,23.21
2023-03-20T10:41:12.181Z,23.23
2023-03-20T10:43:46.429Z,23.25
2023-03-20T10:46:22.889Z,23.28
2023-03-20T10:49:01.153Z,23.31
2023-03-20T10:51:49.555Z,23.33
2023-03-20T10:54:30.261Z,23.34
2023-03-20T10:57:04.049Z,23.35
2023-03-20T10:59:41.944Z,23.35
2023-03-20T11:02:17.675Z,23.39
2023-03-20T11:04:48.137Z,23.41
2023-03-20T11:07:28.445Z,23.43
2023-03-20T11:10:18.033Z,23.46
2023-03-20T11:12:50.958Z,23.51
2023-03-20T11:15:30.229Z,23.57
2023-03-20T11:18:02.862Z,23.61
2023-03-20T11:20:39.547Z,23.67
2023-03-20T11:23:16.872Z,23.71
2023-03-20T11:26:05.456Z,23.76
2023-03-20T11:28:38.988Z,23.80
2023-03-20T11:31:19.396Z,23.82
2023-03-20T11:33:55.983Z,23.86
2023-03-20T11:36:30.385Z,23.88
2023-03-20T11:39:09.911Z,23.90
2023-03-20T11:41:50.554Z,23.91
2023-03-20T11:44:30.087Z,23.93
2023-03-20T11:47:04.096Z,23.95
2023-03-20T11:49:48.588Z,23.98
2023-03-20T11:52:25.389Z,24.01
2023-03-20T11:55:00.438Z,24.04
2023-03-20T11:57:39.016Z,24.06
2023-03-20T12:00:20.309Z,24.08
2023-03-20T12:02:51.178Z,24.10
2023-03-20T12:05:32.853Z,24.12
2023-03-20T12:08:11.291Z,24.12
2023-03-20T12:10:45.668Z,24.13
2023-03-20T12:13:24.728Z,24.15
2023-03-20T12:16:04.051Z,24.17
2023-03-20T12:18:40.076Z,24.18
2023-03-20T12:21:17.218Z,24.18
2023-03-20T12:23:53.817Z,24.17
2023-03-20T12:26:35.241Z,24.18
2023-03-20T12:29:19.336Z,24.20
2023-03-20T12:31:56.491Z,24.22
2023-03-20T12:34:36.008Z,24.26
2023-03-20T12:37:05.829Z,24.29
2023-03-20T12:39:41.880Z,24.33
2023-03-20T12:42:27.635Z,24.36
2023-03-20T12:45:10.684Z,24.38
2023-03-20T12:48:19.877Z,24.41
2023-03-20T12:50:58.751Z,24.43
2023-03-20T12:53:47.530Z,24.46
2023-03-20T12:56:54.408Z,24.47
2023-03-20T12:59:41.091Z,24.48
2023-03-20T13:02:35.573Z,24.50
2023-03-20T13:05:22.034Z,24.53
2023-03-20T13:08:34.167Z,24.53
2023-03-20T13:11:16.498Z,24.54
2023-03-20T13:13:57.081Z,24.56
2023-03-20T13:16:46.200Z,24.59
2023-03-20T13:19:30.441Z,24.55
2023-03-20T13:22:11.469Z,24.54
2023-03-20T13:24:50.451Z,24.52
2023-03-20T13:27:38.205Z,24.48
2023-03-20T13:30:22.032Z,24.45
2023-03-20T13:33:12.175Z,24.43
2023-03-20T13:35:54.298Z,24.40
2023-03-20T13:38:30.291Z,24.38
2023-03-20T13:41:05.648Z,24.37
2023-03-20T13:43:43.737Z,24.35
2023-03-20T13:46:20.758Z,24.34
2023-03-20T13:48:52.579Z,24.35
2023-03-20T13:51:34.272Z,24.37
2023-03-20T13:54:23.539Z,24.37
2023-03-20T13:57:04.940Z,24.38
2023-03-20T14:00:02.281Z,24.38
2023-03-20T14:03:03.923Z,24.35
2023-03-20T14:05:40.244Z,24.34
2023-03-20T14:08:37.367Z,24.33
2023-03-20T14:11:32.865Z,24.32
2023-03-20T14:14:15.265Z,24.34
2023-03-20T14:16:46.378Z,24.34
2023-03-20T14:19:23.326Z,24.35
2023-03-20T14:21:58.071Z,24.35
2023-03-20T14:24:31.618Z,24.35
2023-03-20T14:27:04.522Z,24.36
2023-03-20T14:29:40.742Z,24.37
2023-03-20T14:32:53.972Z,24.36
2023-03-20T14:35:29.223Z,24.32
2023-03-20T14:38:26.468Z,24.30
2023-03-20T14:41:15.794Z,24.28
2023-03-20T14:44:07.137Z,24.29
2023-03-20T14:46:53.818Z,24.28
2023-03-20T14:49:50.151Z,24.28
2023-03-20T14:52:44.911Z,24.28
2023-03-20T14:55:36.521Z,24.26
2023-03-20T14:59:03.235Z,24.24
2023-03-20T15:01:56.173Z,24.24
2023-03-20T15:04:36.900Z,24.23
2023-03-20T15:07:16.107Z,24.22
2023-03-20T15:09:50.249Z,24.22
2023-03-20T15:12:26.295Z,24.21
2023-03-20T15:15:02.407Z,24.20
2023-03-20T15:17:41.516Z,24.19
2023-03-20T15:20:18.532Z,24.18
2023-03-20T15:22:57.520Z,24.15
2023-03-20T15:25:34.287Z,24.13
2023-03-20T15:28:08.213Z,24.12
2023-03-20T15:30:42.514Z,24.11
2023-03-20T15:33:21.013Z,24.12
2023-03-20T15:35:52.761Z,24.11
2023-03-20T15:38:24.356Z,24.11
2023-03-20T15:40:55.545Z,24.10
2023-03-20T15:43:28.504Z,24.08
2023-03-20T15:46:16.830Z,24.07
2023-03-20T15:48:51.227Z,24.05
2023-03-20T15:51:30.782Z,24.04
2023-03-20T15:54:00.594Z,24.03
2023-03-20T15:56:31.338Z,24.01
2023-03-20T15:59:03.442Z,23.99
2023-03-20T16:01:37.305Z,23.99
2023-03-20T16:04:07.753Z,23.98
2023-03-20T16:06:38.114Z,23.97
2023-03-20T16:09:11.523Z,23.97
2023-03-20T16:11:46.238Z,23.97
2023-03-20T16:14:26.887Z,23.98
2023-03-20T16:17:02.251Z,23.96
2023-03-20T16:19:33.539Z,23.96
2023-03-20T16:22:19.317Z,23.95
2023-03-20T16:24:55.541Z,23.94
2023-03-20T16:27:32.459Z,23.94
2023-03-20T16:30:08.222Z,23.92
2023-03-20T16:32:48.553Z,23.91
2023-03-20T16:35:23.328Z,23.90
2023-03-20T16:37:59.516Z,23.90
2023-03-20T16:40:34.434Z,23.90
2023-03-20T16:43:16.275Z,23.90
2023-03-20T16:45:51.774Z,23.88
2023-03-20T16:48:39.851Z,23.88
2023-03-20T16:51:20.245Z,23.86
2023-03-20T16:53:53.139Z,23.85
2023-03-20T16:56:31.357Z,23.86
2023-03-20T16:59:08.379Z,23.85
2023-03-20T17:01:48.289Z,23.83
2023-03-20T17:04:24.620Z,23.83
2023-03-20T17:07:00.554Z,23.81
2023-03-20T17:09:32.658Z,23.80
2023-03-20T17:12:08.316Z,23.80
2023-03-20T17:14:38.515Z,23.79
2023-03-20T17:17:16.058Z,23.78
2023-03-20T17:19:50.318Z,23.75
2023-03-20T17:22:23.149Z,23.75
2023-03-20T17:24:53.633Z,23.75
2023-03-20T17:27:24.628Z,23.74
2023-03-20T17:29:56.626Z,23.73
2023-03-20T17:32:26.730Z,23.72
2023-03-20T17:34:58.644Z,23.70
2023-03-20T17:37:32.384Z,23.68
2023-03-20T17:40:02.695Z,23.66
2023-03-20T17:42:39.811Z,23.65
2023-03-20T17:45:15.591Z,23.64
2023-03-20T17:47:46.986Z,23.63
2023-03-20T17:50:27.643Z,23.62
2023-03-20T17:52:57.885Z,23.61
2023-03-20T17:55:28.420Z,23.61
2023-03-20T17:57:58.679Z,23.61
2023-03-20T18:00:29.286Z,23.60
2023-03-20T18:02:59.035Z,23.60
2023-03-20T18:05:32.646Z,23.59
2023-03-20T18:08:02.586Z,23.57
2023-03-20T18:10:35.847Z,23.59
2023-03-20T18:13:08.035Z,23.59
2023-03-20T18:15:40.623Z,23.55
2023-03-20T18:18:11.588Z,23.54
2023-03-20T18:20:45.911Z,23.52
2023-03-20T18:23:18.180Z,23.52
2023-03-20T18:25:48.623Z,23.51
2023-03-20T18:28:23.596Z,23.52
2023-03-20T18:30:53.856Z,23.51
2023-03-20T18:33:28.039Z,23.50
2023-03-20T18:36:00.264Z,23.50
2023-03-20T18:38:31.178Z,23.49
2023-03-20T18:41:01.624Z,23.48
2023-03-20T18:43:31.737Z,23.48
2023-03-20T18:46:02.117Z,23.48
2023-03-20T18:48:33.048Z,23.48
2023-03-20T18:51:05.537Z,23.47
2023-03-20T18:53:36.389Z,23.46
2023-03-20T18:56:09.175Z,23.45
2023-03-20T18:58:39.518Z,23.44
2023-03-20T19:01:11.669Z,23.44
2023-03-20T19:03:43.859Z,23.44
2023-03-20T19:06:19.426Z,23.43
2023-03-20T19:08:51.281Z,23.43
2023-03-20T19:11:21.793Z,23.41
2023-03-20T19:13:55.547Z,23.41
2023-03-20T19:16:29.833Z,23.39
2023-03-20T19:19:01.892Z,23.38
2023-03-20T19:21:37.210Z,23.38
2023-03-20T19:24:09.837Z,23.37
2023-03-20T19:26:40.858Z,23.36
2023-03-20T19:29:15.909Z,23.37
2023-03-20T19:31:48.146Z,23.35
2023-03-20T19:34:51.918Z,23.35
2023-03-20T19:37:14.652Z,23.33
2023-03-20T19:39:45.349Z,23.33
2023-03-20T19:42:47.407Z,23.33
2023-03-20T19:45:08.270Z,23.31
2023-03-20T19:47:38.820Z,23.31
2023-03-20T19:50:19.432Z,23.30
2023-03-20T19:52:52.303Z,23.30
2023-03-20T19:55:23.276Z,23.30
2023-03-20T19:57:55.066Z,23.29
2023-03-20T20:00:56.258Z,23.29
2023-03-20T20:03:22.765Z,23.29
2023-03-20T20:05:54.512Z,23.27
2023-03-20T20:08:43.432Z,23.27
2023-03-20T20:11:17.513Z,23.27
2023-03-20T20:14:04.798Z,23.26
2023-03-20T20:16:37.634Z,23.26
2023-03-20T20:19:08.292Z,23.26
2023-03-20T20:24:31.609Z,23.27
2023-03-20T20:27:16.609Z,23.26
2023-03-20T20:29:51.562Z,23.26
2023-03-20T20:32:24.930Z,23.26
2023-03-20T20:40:39.774Z,23.25
2023-03-20T20:43:11.308Z,23.25
2023-03-20T20:45:41.429Z,23.25
2023-03-20T20:48:12.840Z,23.26
2023-03-20T20:50:46.928Z,23.25
2023-03-20T20:53:17.084Z,23.25
2023-03-20T20:55:49.639Z,23.26
2023-03-20T20:58:19.980Z,23.25
2023-03-20T21:00:55.477Z,23.24
2023-03-20T21:03:25.949Z,23.23
2023-03-20T21:05:56.611Z,23.23
2023-03-20T21:08:26.438Z,23.22
2023-03-20T21:10:58.897Z,23.22
2023-03-20T21:13:28.777Z,23.22
2023-03-20T21:16:03.065Z,23.22
2023-03-20T21:18:33.011Z,23.21
2023-03-20T21:21:07.918Z,23.21
2023-03-20T21:23:38.914Z,23.21
2023-03-20T21:26:13.636Z,23.20
2023-03-20T21:28:45.142Z,23.19
2023-03-20T21:31:30.217Z,23.20
2023-03-20T21:34:01.220Z,23.17
2023-03-20T21:36:31.855Z,23.18
2023-03-20T21:39:08.385Z,23.18
2023-03-20T21:41:43.071Z,23.17
2023-03-20T21:44:17.781Z,23.16
2023-03-20T21:50:28.718Z,23.15
2023-03-20T21:53:10.481Z,23.14
2023-03-20T21:56:17.094Z,23.14
2023-03-20T22:07:28.703Z,23.12
2023-03-20T22:10:18.740Z,23.11
2023-03-20T22:16:16.726Z,23.11
2023-03-20T22:30:22.197Z,23.09
2023-03-20T22:44:41.655Z,23.06
2023-03-20T22:46:47.291Z,23.04
2023-03-20T22:49:20.009Z,23.05
2023-03-20T22:52:05.085Z,23.05
2023-03-20T22:54:40.425Z,23.05
2023-03-20T22:57:10.889Z,23.04
2023-03-20T22:59:41.458Z,23.05
2023-03-20T23:02:11.174Z,23.04
2023-03-20T23:04:43.795Z,23.03
2023-03-20T23:07:14.213Z,23.04
2023-03-20T23:09:44.412Z,23.04
2023-03-20T23:12:14.713Z,23.03
2023-03-20T23:14:46.069Z,23.04
2023-03-20T23:17:17.204Z,23.04
2023-03-20T23:19:54.087Z,23.03
2023-03-20T23:22:29.612Z,23.03
2023-03-20T23:25:02.869Z,23.02
2023-03-20T23:27:40.439Z,23.00
2023-03-20T23:30:12.660Z,22.99
2023-03-20T23:32:44.559Z,22.99
2023-03-20T23:35:16.836Z,22.99
2023-03-20T23:37:46.854Z,22.97
2023-03-20T23:40:16.984Z,22.96
2023-03-20T23:42:47.377Z,22.94
2023-03-20T23:45:20.688Z,22.93
2023-03-20T23:47:51.893Z,22.91
2023-03-20T23:50:36.908Z,22.91
2023-03-20T23:53:19.994Z,22.90
2023-03-20T23:55:52.859Z,22.89
2023-03-20T23:58:24.719Z,22.88
